createdAt,value
2018-06-27T00:01:55.047Z,84.37
2018-06-27T00:04:23.627Z,84.38
2018-06-27T00:06:52.026Z,84.76
2018-06-27T00:09:20.305Z,85.07
2018-06-27T00:11:48.615Z,85.10
2018-06-27T00:14:16.936Z,84.98
2018-06-27T00:16:45.284Z,85.25
2018-06-27T00:19:13.631Z,85.61
2018-06-27T00:21:41.974Z,85.60
2018-06-27T00:24:10.255Z,85.20
2018-06-27T00:26:38.608Z,85.30
2018-06-27T00:29:06.902Z,85.77
2018-06-27T00:31:35.563Z,86.49
2018-06-27T00:34:06.803Z,86.22
2018-06-27T00:36:35.115Z,86.78
2018-06-27T00:39:03.978Z,86.52
2018-06-27T00:41:32.414Z,86.66
2018-06-27T00:44:00.682Z,87.16
2018-06-27T00:46:29.008Z,87.03
2018-06-27T00:48:57.324Z,87.22
2018-06-27T00:51:25.785Z,87.44
2018-06-27T00:53:59.485Z,87.33
2018-06-27T00:56:27.870Z,87.38
2018-06-27T00:58:56.298Z,87.17
2018-06-27T01:01:24.609Z,87.60
2018-06-27T01:03:52.896Z,87.81
2018-06-27T01:06:21.214Z,87.15
2018-06-27T01:08:49.662Z,87.39
2018-06-27T01:11:18.064Z,87.41
2018-06-27T01:13:46.368Z,88.46
2018-06-27T01:16:14.730Z,88.89
2018-06-27T01:18:43.077Z,88.74
2018-06-27T01:21:11.402Z,89.15
2018-06-27T01:23:39.717Z,89.32
2018-06-27T01:26:08.254Z,89.50
2018-06-27T01:28:36.534Z,88.17
2018-06-27T01:31:04.899Z,88.50
2018-06-27T01:33:33.178Z,88.82
2018-06-27T01:36:01.597Z,88.76
2018-06-27T01:38:29.886Z,88.60
2018-06-27T01:40:58.269Z,89.05
2018-06-27T01:43:26.798Z,88.66
2018-06-27T01:45:55.144Z,89.55
2018-06-27T01:48:23.439Z,89.94
2018-06-27T01:50:51.962Z,89.74
2018-06-27T01:53:20.326Z,89.41
2018-06-27T01:55:48.725Z,89.77
2018-06-27T01:58:17.173Z,89.07
2018-06-27T02:00:45.449Z,89.43
2018-06-27T02:03:13.771Z,89.87
2018-06-27T02:05:42.055Z,89.99
2018-06-27T02:08:10.551Z,90.28
2018-06-27T02:10:38.832Z,90.34
2018-06-27T02:13:08.659Z,90.02
2018-06-27T02:15:36.948Z,90.99
2018-06-27T02:18:05.386Z,91.04
2018-06-27T02:20:33.662Z,91.85
2018-06-27T02:23:11.585Z,91.84
2018-06-27T02:25:40.374Z,91.84
2018-06-27T02:28:09.787Z,91.50
2018-06-27T02:30:38.259Z,91.48
2018-06-27T02:33:06.551Z,91.85
2018-06-27T02:35:34.830Z,91.66
2018-06-27T02:38:03.168Z,91.35
2018-06-27T02:40:31.476Z,90.97
2018-06-27T02:42:59.789Z,91.22
2018-06-27T02:45:28.069Z,91.15
2018-06-27T02:47:56.490Z,91.05
2018-06-27T02:50:24.771Z,91.03
2018-06-27T02:52:53.099Z,91.18
2018-06-27T02:55:21.443Z,91.84
2018-06-27T02:57:49.882Z,92.00
2018-06-27T03:00:18.264Z,90.91
2018-06-27T03:02:47.294Z,90.97
2018-06-27T03:05:15.742Z,91.04
2018-06-27T03:07:44.670Z,90.84
2018-06-27T03:10:12.986Z,91.13
2018-06-27T03:12:41.334Z,90.85
2018-06-27T03:15:10.582Z,91.05
2018-06-27T03:17:39.094Z,91.18
2018-06-27T03:20:07.374Z,90.92
2018-06-27T03:22:35.742Z,91.96
2018-06-27T03:25:04.726Z,92.07
2018-06-27T03:27:33.026Z,91.45
2018-06-27T03:30:01.394Z,91.15
2018-06-27T03:32:29.735Z,90.91
2018-06-27T03:34:58.070Z,91.02
2018-06-27T03:37:26.594Z,91.02
2018-06-27T03:39:54.912Z,90.46
2018-06-27T03:42:23.265Z,90.33
2018-06-27T03:44:51.541Z,90.03
2018-06-27T03:47:19.879Z,90.21
2018-06-27T03:49:48.338Z,90.65
2018-06-27T03:52:16.617Z,90.89
2018-06-27T03:54:44.923Z,91.31
2018-06-27T03:57:16.708Z,91.55
2018-06-27T03:59:45.051Z,90.98
2018-06-27T04:02:13.339Z,90.98
2018-06-27T04:04:41.670Z,91.05
2018-06-27T04:07:12.902Z,91.26
2018-06-27T04:09:41.215Z,91.12
2018-06-27T04:12:09.514Z,91.03
2018-06-27T04:14:37.881Z,91.31
2018-06-27T04:17:06.326Z,91.15
2018-06-27T04:19:34.660Z,90.95
2018-06-27T04:22:02.964Z,90.97
2018-06-27T04:24:31.307Z,90.01
2018-06-27T04:26:59.607Z,90.29
2018-06-27T04:29:27.921Z,91.08
2018-06-27T04:31:56.211Z,91.03
2018-06-27T04:34:24.558Z,90.84
2018-06-27T04:36:52.858Z,91.18
2018-06-27T04:39:21.191Z,91.41
2018-06-27T04:41:49.482Z,91.04
2018-06-27T04:44:18.317Z,90.62
2018-06-27T04:46:46.603Z,91.81
2018-06-27T04:49:14.923Z,92.17
2018-06-27T04:51:43.215Z,92.26
2018-06-27T04:54:11.534Z,92.25
2018-06-27T04:56:39.808Z,91.97
2018-06-27T04:59:08.154Z,91.78
2018-06-27T05:01:36.440Z,92.41
2018-06-27T05:04:04.768Z,92.26
2018-06-27T05:06:33.051Z,91.95
2018-06-27T05:09:01.365Z,91.28
2018-06-27T05:11:29.658Z,91.24
2018-06-27T05:19:46.355Z,91.44
2018-06-27T05:22:14.993Z,90.81
2018-06-27T05:24:43.826Z,91.26
2018-06-27T05:27:12.206Z,90.42
2018-06-27T05:29:40.543Z,89.51
2018-06-27T05:32:08.839Z,88.63
2018-06-27T05:34:38.743Z,88.08
2018-06-27T05:37:07.102Z,87.83
2018-06-27T05:39:35.413Z,87.50
2018-06-27T05:42:03.711Z,86.86
2018-06-27T05:44:32.029Z,85.48
2018-06-27T05:47:00.309Z,84.99
2018-06-27T05:49:28.629Z,84.02
2018-06-27T05:51:56.969Z,85.47
2018-06-27T05:54:25.562Z,85.80
2018-06-27T08:21:56.706Z,66.11
2018-06-27T08:24:24.997Z,64.84
2018-06-27T08:26:53.391Z,65.22
2018-06-27T08:29:21.710Z,64.20
2018-06-27T08:31:50.118Z,63.52
2018-06-27T08:34:18.678Z,63.66
2018-06-27T08:36:47.083Z,61.73
2018-06-27T08:39:15.359Z,62.92
2018-06-27T08:41:43.750Z,63.74
2018-06-27T08:44:12.026Z,62.03
2018-06-27T08:46:40.367Z,60.91
2018-06-27T08:49:08.667Z,62.28
2018-06-27T08:51:36.966Z,62.67
2018-06-27T08:54:05.293Z,63.16
2018-06-27T08:56:33.685Z,59.49
2018-06-27T08:59:02.028Z,59.29
2018-06-27T09:01:30.380Z,59.30
2018-06-27T09:03:58.642Z,58.84
2018-06-27T09:06:26.963Z,59.02
2018-06-27T09:08:55.251Z,56.91
2018-06-27T09:11:23.621Z,57.70
2018-06-27T09:13:52.088Z,56.34
2018-06-27T09:16:20.347Z,57.10
2018-06-27T09:18:48.633Z,56.54
2018-06-27T09:21:17.003Z,57.77
2018-06-27T09:23:45.313Z,55.24
2018-06-27T09:26:13.671Z,56.97
2018-06-27T09:28:41.974Z,57.15
2018-06-27T09:31:10.293Z,55.40
2018-06-27T09:33:38.562Z,54.44
2018-06-27T09:36:06.830Z,53.25
2018-06-27T09:38:35.149Z,51.40
2018-06-27T09:41:03.419Z,52.84
2018-06-27T09:43:31.719Z,54.42
2018-06-27T09:45:59.987Z,54.02
2018-06-27T09:48:28.274Z,52.81
2018-06-27T09:50:56.620Z,52.95
2018-06-27T09:53:24.945Z,53.58
2018-06-27T09:55:53.219Z,50.01
2018-06-27T09:58:21.835Z,50.44
2018-06-27T10:00:50.120Z,51.17
2018-06-27T10:03:18.456Z,48.35
2018-06-27T10:05:46.726Z,49.59
2018-06-27T10:08:15.067Z,49.94
2018-06-27T10:10:43.470Z,49.34
2018-06-27T10:13:11.971Z,47.73
2018-06-27T10:15:40.502Z,46.95
2018-06-27T10:18:08.999Z,47.49
2018-06-27T10:20:37.335Z,48.87
2018-06-27T10:23:06.678Z,47.93
2018-06-27T10:25:35.196Z,47.98
2018-06-27T10:28:03.742Z,47.02
2018-06-27T10:30:32.052Z,46.94
2018-06-27T10:33:00.434Z,45.58
2018-06-27T10:35:28.867Z,47.09
2018-06-27T10:37:57.311Z,48.19
2018-06-27T10:40:25.843Z,46.61
2018-06-27T10:42:54.378Z,48.42
2018-06-27T10:45:22.674Z,48.14
2018-06-27T10:47:50.978Z,47.03
2018-06-27T10:50:19.338Z,48.48
2018-06-27T10:52:47.695Z,47.34
2018-06-27T10:55:21.681Z,48.88
2018-06-27T10:57:50.003Z,47.69
2018-06-27T11:00:18.341Z,46.93
2018-06-27T11:02:46.658Z,48.45
2018-06-27T11:05:15.001Z,47.15
2018-06-27T11:07:43.761Z,47.21
2018-06-27T11:10:12.150Z,43.84
2018-06-27T11:12:40.549Z,44.11
2018-06-27T11:15:09.184Z,45.00
2018-06-27T11:17:37.523Z,45.67
2018-06-27T11:20:05.965Z,44.83
2018-06-27T11:22:34.235Z,45.15
2018-06-27T11:25:02.579Z,46.24
2018-06-27T11:27:30.880Z,45.60
2018-06-27T11:29:59.233Z,44.35
2018-06-27T11:32:27.538Z,44.03
2018-06-27T11:34:55.967Z,42.16
2018-06-27T11:37:24.507Z,44.62
2018-06-27T11:39:52.838Z,45.16
2018-06-27T11:42:21.098Z,45.30
2018-06-27T11:44:49.399Z,44.60
2018-06-27T11:47:17.674Z,45.25
2018-06-27T11:49:45.974Z,43.83
2018-06-27T11:52:14.286Z,44.36
2018-06-27T11:54:42.602Z,43.69
2018-06-27T11:57:11.194Z,43.61
2018-06-27T11:59:39.668Z,43.37
2018-06-27T12:02:07.986Z,40.23
2018-06-27T12:04:36.432Z,39.60
2018-06-27T12:07:04.815Z,41.69
2018-06-27T12:09:33.259Z,42.99
2018-06-27T12:12:01.559Z,44.45
2018-06-27T12:14:29.957Z,42.40
2018-06-27T12:16:58.256Z,44.96
2018-06-27T12:19:26.570Z,43.25
2018-06-27T12:21:54.859Z,43.21
2018-06-27T12:24:23.326Z,43.36
2018-06-27T12:26:52.322Z,42.46
2018-06-27T12:29:20.749Z,44.19
2018-06-27T12:31:49.015Z,44.77
2018-06-27T12:34:17.538Z,43.37
2018-06-27T12:36:46.227Z,43.97
2018-06-27T12:39:14.782Z,44.99
2018-06-27T12:41:43.093Z,44.16
2018-06-27T12:44:11.468Z,44.32
2018-06-27T12:46:39.865Z,44.44
2018-06-27T12:49:08.290Z,42.15
2018-06-27T12:51:36.701Z,43.33
2018-06-27T12:54:04.969Z,43.26
2018-06-27T12:56:33.282Z,45.04
2018-06-27T12:59:01.724Z,43.12
2018-06-27T13:01:30.063Z,43.45
2018-06-27T13:03:58.326Z,43.63
2018-06-27T13:06:26.735Z,42.96
2018-06-27T13:08:55.091Z,43.47
2018-06-27T13:11:23.412Z,45.37
2018-06-27T13:13:51.682Z,43.15
2018-06-27T13:16:20.019Z,43.79
2018-06-27T13:18:48.444Z,41.88
2018-06-27T13:21:16.738Z,42.13
2018-06-27T13:23:45.025Z,40.75
2018-06-27T13:26:13.355Z,39.87
2018-06-27T13:28:41.669Z,41.54
2018-06-27T13:31:10.107Z,39.76
2018-06-27T13:33:38.441Z,42.79
2018-06-27T13:36:06.820Z,41.67
2018-06-27T13:38:35.119Z,43.20
2018-06-27T13:41:03.416Z,43.00
2018-06-27T13:43:31.746Z,41.89
2018-06-27T13:46:00.071Z,40.99
2018-06-27T13:48:28.371Z,41.38
2018-06-27T13:50:56.706Z,40.66
2018-06-27T13:53:24.955Z,40.51
2018-06-27T13:55:53.278Z,38.41
2018-06-27T13:58:21.568Z,36.86
2018-06-27T14:00:49.934Z,37.31
2018-06-27T14:03:18.917Z,37.56
2018-06-27T14:05:47.228Z,39.07
2018-06-27T14:08:15.575Z,37.51
2018-06-27T14:10:43.914Z,39.17
2018-06-27T14:13:12.218Z,39.25
2018-06-27T14:15:40.566Z,37.82
2018-06-27T14:18:09.706Z,38.52
2018-06-27T14:20:38.022Z,37.19
2018-06-27T14:23:06.396Z,37.01
2018-06-27T14:25:34.773Z,35.55
2018-06-27T14:28:03.026Z,37.79
2018-06-27T14:30:31.401Z,37.69
2018-06-27T14:32:59.815Z,39.69
2018-06-27T14:35:28.137Z,39.15
2018-06-27T14:37:56.523Z,38.76
2018-06-27T14:40:24.790Z,39.71
2018-06-27T14:42:53.115Z,38.63
2018-06-27T14:45:21.373Z,41.00
2018-06-27T14:47:49.699Z,40.38
2018-06-27T14:50:17.966Z,39.90
2018-06-27T14:52:46.274Z,38.64
2018-06-27T14:55:14.571Z,38.08
2018-06-27T14:57:42.875Z,38.61
2018-06-27T15:00:11.155Z,38.58
2018-06-27T15:02:39.482Z,38.90
2018-06-27T15:05:07.759Z,37.33
2018-06-27T15:07:36.107Z,36.58
2018-06-27T15:10:04.399Z,38.03
2018-06-27T15:12:32.695Z,37.02
2018-06-27T15:15:00.970Z,35.47
2018-06-27T15:17:29.283Z,38.00
2018-06-27T15:19:57.785Z,38.87
2018-06-27T15:22:26.175Z,38.63
2018-06-27T15:24:54.511Z,40.54
2018-06-27T15:27:22.818Z,40.27
2018-06-27T15:29:51.111Z,38.80
2018-06-27T15:32:19.436Z,38.43
2018-06-27T15:34:47.873Z,39.37
2018-06-27T15:37:16.111Z,39.11
2018-06-27T15:39:44.405Z,37.54
2018-06-27T15:42:12.713Z,37.27
2018-06-27T15:44:41.003Z,38.42
2018-06-27T15:47:09.306Z,37.85
2018-06-27T15:49:37.574Z,36.60
2018-06-27T15:52:05.946Z,38.31
2018-06-27T15:54:34.233Z,37.09
2018-06-27T15:57:02.550Z,37.51
2018-06-27T15:59:33.353Z,39.48
2018-06-27T16:02:01.668Z,40.31
2018-06-27T16:04:29.984Z,40.46
2018-06-27T16:06:58.622Z,39.96
2018-06-27T16:09:27.009Z,39.71
2018-06-27T16:11:55.585Z,40.92
2018-06-27T16:14:23.751Z,40.14
2018-06-27T16:16:52.211Z,41.35
2018-06-27T16:19:20.542Z,40.79
2018-06-27T16:21:49.155Z,41.24
2018-06-27T16:24:18.739Z,42.86
2018-06-27T16:26:47.328Z,43.10
2018-06-27T16:29:15.637Z,42.13
2018-06-27T16:31:43.945Z,42.51
2018-06-27T16:34:12.522Z,42.71
2018-06-27T16:36:40.795Z,42.09
2018-06-27T16:39:10.145Z,41.46
2018-06-27T16:41:38.631Z,41.32
2018-06-27T16:44:06.976Z,40.58
2018-06-27T16:46:35.279Z,41.11
2018-06-27T16:49:03.801Z,42.33
2018-06-27T16:51:32.317Z,42.40
2018-06-27T16:54:00.502Z,41.21
2018-06-27T16:56:28.839Z,42.21
2018-06-27T16:58:57.155Z,41.61
2018-06-27T17:01:25.590Z,40.51
2018-06-27T17:03:53.826Z,38.99
2018-06-27T17:06:22.214Z,39.09
2018-06-27T17:08:50.559Z,40.37
2018-06-27T17:11:18.916Z,41.12
2018-06-27T17:13:47.210Z,39.18
2018-06-27T17:16:15.510Z,39.96
2018-06-27T17:18:56.508Z,41.10
2018-06-27T17:21:24.945Z,41.53
2018-06-27T17:23:53.305Z,41.77
2018-06-27T17:26:21.807Z,43.53
2018-06-27T17:28:50.175Z,43.68
2018-06-27T17:31:18.504Z,43.33
2018-06-27T17:33:46.935Z,44.75
2018-06-27T18:05:01.986Z,43.08
2018-06-27T18:07:30.426Z,44.55
2018-06-27T18:09:58.711Z,43.38
2018-06-27T18:12:26.961Z,42.97
2018-06-27T18:14:57.723Z,44.34
2018-06-27T18:17:29.283Z,45.10
2018-06-27T18:20:00.580Z,46.17
2018-06-27T18:22:29.075Z,45.47
2018-06-27T18:24:57.398Z,44.54
2018-06-27T18:27:25.650Z,44.80
2018-06-27T18:29:54.851Z,45.10
2018-06-27T18:32:23.646Z,44.90
2018-06-27T18:34:53.056Z,44.62
2018-06-27T18:37:21.326Z,44.92
2018-06-27T18:39:49.670Z,45.53
2018-06-27T18:42:17.943Z,45.24
2018-06-27T18:44:46.250Z,44.54
2018-06-27T18:47:20.841Z,44.80
2018-06-27T18:49:49.131Z,45.92
2018-06-27T18:52:17.447Z,45.68
2018-06-27T18:54:45.776Z,56.70
2018-06-27T18:57:14.099Z,58.70
2018-06-27T18:59:42.391Z,58.40
2018-06-27T19:02:12.231Z,59.48
2018-06-27T19:04:40.550Z,58.74
2018-06-27T19:07:08.901Z,60.72
2018-06-27T19:09:37.183Z,62.12
2018-06-27T19:12:05.454Z,62.41
2018-06-27T19:14:33.731Z,63.19
2018-06-27T19:17:01.975Z,63.87
2018-06-27T19:19:30.329Z,65.50
2018-06-27T19:21:58.578Z,65.56
2018-06-27T19:24:26.854Z,67.49
2018-06-27T19:26:55.110Z,68.71
2018-06-27T19:29:23.409Z,67.99
2018-06-27T19:31:51.788Z,68.90
2018-06-27T19:34:20.107Z,67.58
2018-06-27T19:36:48.367Z,68.12
2018-06-27T19:39:17.943Z,69.59
2018-06-27T19:41:46.215Z,69.42
2018-06-27T19:44:14.652Z,68.73
2018-06-27T19:46:43.051Z,69.98
2018-06-27T19:49:11.346Z,70.11
2018-06-27T19:51:39.656Z,70.85
2018-06-27T19:54:08.199Z,71.71
2018-06-27T19:56:36.481Z,72.24
2018-06-27T19:59:04.974Z,71.51
2018-06-27T20:01:33.262Z,71.56
2018-06-27T20:04:01.723Z,72.75
2018-06-27T20:06:29.977Z,74.14
2018-06-27T20:08:58.353Z,74.35
2018-06-27T20:11:26.629Z,74.56
2018-06-27T20:13:54.963Z,74.28
2018-06-27T20:16:23.371Z,74.13
2018-06-27T20:18:51.666Z,74.68
2018-06-27T20:21:19.979Z,74.73
2018-06-27T20:23:48.213Z,74.82
2018-06-27T20:26:16.526Z,74.68
2018-06-27T20:28:44.869Z,74.70
2018-06-27T20:31:13.249Z,74.36
2018-06-27T20:33:41.495Z,74.78
2018-06-27T20:36:09.782Z,74.20
2018-06-27T20:38:38.178Z,74.11
2018-06-27T20:41:06.473Z,74.61
2018-06-27T20:43:34.732Z,75.48
2018-06-27T20:46:03.037Z,75.46
2018-06-27T20:48:31.315Z,75.10
2018-06-27T20:50:59.599Z,75.13
2018-06-27T20:53:27.899Z,74.76
2018-06-27T20:55:56.210Z,74.50
2018-06-27T20:58:24.473Z,75.00
2018-06-27T21:00:52.774Z,75.40
2018-06-27T21:03:21.070Z,76.47
2018-06-27T21:05:49.352Z,77.05
2018-06-27T21:08:17.619Z,77.22
2018-06-27T21:10:45.962Z,75.62
2018-06-27T21:13:14.252Z,76.15
2018-06-27T21:15:42.636Z,76.11
2018-06-27T21:18:10.904Z,76.41
2018-06-27T21:20:39.233Z,76.35
2018-06-27T21:23:07.606Z,77.32
2018-06-27T21:25:35.923Z,77.30
2018-06-27T21:28:04.194Z,78.45
2018-06-27T21:30:32.551Z,77.89
2018-06-27T21:33:00.869Z,78.23
2018-06-27T21:35:29.177Z,78.04
2018-06-27T21:37:57.435Z,78.82
2018-06-27T21:40:25.764Z,79.17
2018-06-27T21:42:54.084Z,78.71
2018-06-27T21:45:22.375Z,79.38
2018-06-27T21:47:50.722Z,79.37
2018-06-27T21:50:19.074Z,79.45
2018-06-27T21:52:47.413Z,79.58
2018-06-27T21:55:15.712Z,79.45
2018-06-27T21:57:43.990Z,79.75
2018-06-27T22:00:13.135Z,78.60
2018-06-27T22:02:41.480Z,79.05
2018-06-27T22:05:09.829Z,78.70
2018-06-27T22:07:38.123Z,79.14
2018-06-27T22:10:06.403Z,78.21
2018-06-27T22:12:34.715Z,78.90
2018-06-27T22:15:02.999Z,78.72
2018-06-27T22:17:31.313Z,79.04
2018-06-27T22:19:59.622Z,79.83
2018-06-27T22:22:27.945Z,80.71
2018-06-27T22:24:56.211Z,81.63
2018-06-27T22:27:24.504Z,80.99
2018-06-27T22:29:52.755Z,80.91
2018-06-27T22:32:21.122Z,81.13
2018-06-27T22:34:49.366Z,80.52
2018-06-27T22:37:17.644Z,79.37
2018-06-27T22:39:45.912Z,79.15
2018-06-27T22:42:14.237Z,79.79
2018-06-27T22:44:42.613Z,79.82
2018-06-27T22:47:10.898Z,79.12
2018-06-27T22:49:39.170Z,79.84
2018-06-27T22:52:07.462Z,80.08
2018-06-27T22:54:35.719Z,80.51
2018-06-27T22:57:04.054Z,80.53
2018-06-27T22:59:32.319Z,79.77
2018-06-27T23:02:00.588Z,80.30
2018-06-27T23:04:28.826Z,81.06
2018-06-27T23:06:57.167Z,81.15
2018-06-27T23:09:25.497Z,81.69
2018-06-27T23:11:53.807Z,81.21
2018-06-27T23:14:22.300Z,81.23
2018-06-27T23:16:50.630Z,81.61
2018-06-27T23:19:19.007Z,80.93
2018-06-27T23:21:47.303Z,80.63
2018-06-27T23:24:15.675Z,80.53
2018-06-27T23:26:44.071Z,81.01
2018-06-27T23:29:12.383Z,80.45
2018-06-27T23:31:40.662Z,80.21
2018-06-27T23:34:08.961Z,80.61
2018-06-27T23:36:37.279Z,80.69
2018-06-27T23:39:08.531Z,80.82
2018-06-27T23:41:36.823Z,80.88
2018-06-27T23:44:05.134Z,81.35
2018-06-27T23:46:33.451Z,81.18
2018-06-27T23:49:01.746Z,80.67
2018-06-27T23:51:30.094Z,80.68
2018-06-27T23:53:58.334Z,80.97
2018-06-27T23:56:26.583Z,80.82
2018-06-27T23:58:54.959Z,80.64
